Time;durP1;ratioP1;P1;durP2;ratioP2;P2;SDS_P1;SDS_P2;PMS_P1;PMS_P2;Temp;Humidity;BMP_temperature;BMP_pressure;BME280_temperature;BME280_humidity;BME280_pressure;Samples;Min_cycle;Max_cycle;Signal;HPM_P1;HPM_P2
2021/06/06 00:00:59;;;;;;;4.40;2.85;;;12.30;77.40;;;;;;5065289;28;20031;-73
2021/06/06 00:03:36;;;;;;;4.97;3.47;;;12.60;75.60;;;;;;5067647;28;20477;-72
2021/06/06 00:06:08;;;;;;;4.03;2.92;;;12.80;74.90;;;;;;5067776;28;20449;-70
2021/06/06 00:08:37;;;;;;;6.00;3.45;;;13.00;75.90;;;;;;5076281;28;20020;-72
2021/06/06 00:11:12;;;;;;;5.80;2.45;;;13.20;73.60;;;;;;5075324;28;20044;-72
2021/06/06 00:13:40;;;;;;;6.78;3.30;;;13.50;71.60;;;;;;5069112;28;20137;-71
2021/06/06 00:16:08;;;;;;;4.30;2.47;;;13.70;71.90;;;;;;5073189;28;20035;-66
2021/06/06 00:18:36;;;;;;;5.07;2.60;;;13.70;70.60;;;;;;5064714;28;20111;-67
2021/06/06 00:21:05;;;;;;;6.50;4.00;;;13.80;70.80;;;;;;5072254;28;20116;-67
2021/06/06 00:23:32;;;;;;;6.55;3.83;;;13.90;71.60;;;;;;5070762;28;20040;-72
2021/06/06 00:26:01;;;;;;;4.03;2.53;;;14.00;71.20;;;;;;5068637;28;20021;-72
2021/06/06 00:28:30;;;;;;;4.30;2.28;;;14.20;70.30;;;;;;5070180;28;20289;-71
2021/06/06 00:30:58;;;;;;;4.60;2.50;;;14.40;68.90;;;;;;5079896;28;20187;-68
2021/06/06 00:33:26;;;;;;;4.78;2.22;;;14.50;67.30;;;;;;5075040;28;20487;-67
2021/06/06 00:35:53;;;;;;;4.00;2.40;;;14.60;67.10;;;;;;5075325;28;20451;-67
2021/06/06 00:38:20;;;;;;;4.80;3.10;;;14.80;68.00;;;;;;5057526;28;20066;-67
2021/06/06 00:40:47;;;;;;;3.30;2.33;;;14.80;67.50;;;;;;5079227;28;20035;-69
2021/06/06 00:43:14;;;;;;;4.50;3.05;;;15.00;66.60;;;;;;5069465;28;20020;-68
2021/06/06 00:45:42;;;;;;;4.63;2.90;;;15.10;67.50;;;;;;5075506;28;20769;-66
2021/06/06 00:48:10;;;;;;;10.80;3.80;;;15.20;66.20;;;;;;5077870;28;20032;-67
2021/06/06 00:50:43;;;;;;;4.28;2.67;;;15.30;66.70;;;;;;5071166;28;20803;-67
2021/06/06 00:53:11;;;;;;;;;;;15.40;65.00;;;;;;5079025;28;20088;-67
2021/06/06 00:55:39;;;;;;;4.18;2.60;;;15.50;65.40;;;;;;5078188;28;19916;-68
2021/06/06 00:58:13;;;;;;;4.53;1.90;;;15.70;65.10;;;;;;5079736;28;20024;-69
2021/06/06 01:00:43;;;;;;;5.35;2.45;;;16.00;63.30;;;;;;5079648;28;20016;-71
2021/06/06 01:03:11;;;;;;;4.75;2.33;;;16.10;63.60;;;;;;5075856;28;20162;-67
2021/06/06 01:06:00;;;;;;;4.38;2.67;;;16.30;61.30;;;;;;5078780;28;20087;-67
2021/06/06 01:08:31;;;;;;;4.07;2.55;;;16.30;61.20;;;;;;5077962;28;20555;-68
2021/06/06 01:11:19;;;;;;;4.28;2.17;;;16.30;62.30;;;;;;5073683;28;20395;-64
2021/06/06 01:13:55;;;;;;;4.57;2.70;;;16.30;61.30;;;;;;5081161;28;20103;-64
2021/06/06 01:16:28;;;;;;;3.65;2.13;;;16.30;62.90;;;;;;5078628;28;20051;-68
2021/06/06 01:18:57;;;;;;;5.68;2.42;;;16.40;61.30;;;;;;5075720;28;20030;-64
2021/06/06 01:22:01;;;;;;;3.05;2.30;;;16.50;61.50;;;;;;5078746;28;20478;-69
2021/06/06 01:24:52;;;;;;;4.57;2.72;;;16.60;61.50;;;;;;5077441;28;20032;-67
2021/06/06 01:27:24;;;;;;;5.85;2.40;;;16.70;61.50;;;;;;5072407;28;20031;-67
2021/06/06 01:30:15;;;;;;;2.72;2.20;;;16.80;60.10;;;;;;5077908;28;20365;-67
2021/06/06 01:32:56;;;;;;;4.15;2.10;;;17.00;60.50;;;;;;5078362;28;20027;-70
2021/06/06 01:35:50;;;;;;;4.53;2.22;;;17.10;58.30;;;;;;5079512;28;20023;-68
2021/06/06 01:38:48;;;;;;;2.75;2.33;;;17.30;58.90;;;;;;5079266;28;20104;-68
2021/06/06 01:41:19;;;;;;;5.93;2.97;;;17.40;58.70;;;;;;5077939;28;20058;-71
2021/06/06 01:43:52;;;;;;;11.13;5.10;;;17.40;58.20;;;;;;5076764;28;20034;-68
2021/06/06 01:46:24;;;;;;;6.63;2.92;;;17.50;61.00;;;;;;5080992;28;20506;-68
2021/06/06 01:48:53;;;;;;;3.63;1.90;;;17.60;58.30;;;;;;5080589;28;20035;-65
2021/06/06 01:51:29;;;;;;;6.07;2.50;;;17.80;58.00;;;;;;5083524;28;20272;-66
2021/06/06 01:53:56;;;;;;;3.03;2.00;;;17.90;55.60;;;;;;5063870;28;20025;-66
2021/06/06 01:56:27;;;;;;;6.60;2.17;;;18.10;56.70;;;;;;5081468;28;20024;-67
2021/06/06 01:58:57;;;;;;;3.70;2.05;;;18.10;57.50;;;;;;5082043;28;20044;-65
2021/06/06 02:01:26;;;;;;;2.08;1.30;;;18.20;55.50;;;;;;5077447;28;20090;-66
2021/06/06 02:03:55;;;;;;;2.92;0.98;;;18.10;53.60;;;;;;5084366;28;20035;-69
2021/06/06 02:06:29;;;;;;;3.45;1.20;;;18.10;54.10;;;;;;5088615;28;20051;-66
2021/06/06 02:08:58;;;;;;;2.72;1.13;;;18.20;52.70;;;;;;5078599;28;20111;-68
2021/06/06 02:12:03;;;;;;;1.73;0.77;;;18.20;53.50;;;;;;5080051;28;20020;-68
2021/06/06 02:14:40;;;;;;;2.10;0.85;;;18.50;51.30;;;;;;5079508;28;20045;-69
2021/06/06 02:17:38;;;;;;;1.15;0.65;;;18.60;51.40;;;;;;5079719;28;20055;-68
2021/06/06 02:20:12;;;;;;;2.17;0.93;;;18.80;52.10;;;;;;5063923;28;20109;-66
2021/06/06 02:22:39;;;;;;;2.50;1.00;;;18.90;50.00;;;;;;5081549;28;20054;-66
2021/06/06 02:25:07;;;;;;;3.00;0.98;;;18.90;50.70;;;;;;5082616;28;20060;-66
2021/06/06 02:27:46;;;;;;;2.60;0.77;;;18.80;51.40;;;;;;5078628;28;20073;-64
2021/06/06 02:30:33;;;;;;;1.20;0.77;;;18.90;51.20;;;;;;5085213;28;20048;-64
2021/06/06 02:33:18;;;;;;;2.72;1.00;;;18.90;49.70;;;;;;5080389;28;20020;-66
2021/06/06 02:35:57;;;;;;;2.10;0.80;;;19.00;51.20;;;;;;5080501;28;20016;-64
2021/06/06 02:38:52;;;;;;;1.55;0.63;;;19.10;49.70;;;;;;5081829;28;20023;-64
2021/06/06 02:41:27;;;;;;;1.30;0.47;;;19.10;48.60;;;;;;5079020;28;20019;-68
2021/06/06 02:44:10;;;;;;;1.88;0.60;;;19.10;48.00;;;;;;5082651;28;20119;-65
2021/06/06 02:46:40;;;;;;;1.52;0.68;;;19.20;48.30;;;;;;5081983;28;20024;-67
2021/06/06 02:49:12;;;;;;;2.22;0.60;;;19.30;48.30;;;;;;5059460;28;20028;-65
2021/06/06 02:52:03;;;;;;;2.33;0.70;;;19.50;48.40;;;;;;5082282;28;20046;-64
2021/06/06 02:54:45;;;;;;;2.00;0.60;;;19.60;46.60;;;;;;5081398;28;20453;-66
2021/06/06 02:57:15;;;;;;;2.10;0.70;;;19.70;45.40;;;;;;5080055;28;20028;-65
2021/06/06 02:59:52;;;;;;;2.05;0.68;;;19.50;45.40;;;;;;5082901;28;20078;-65
2021/06/06 03:02:23;;;;;;;3.15;0.82;;;19.60;46.20;;;;;;5084134;28;20642;-65
2021/06/06 03:04:55;;;;;;;0.85;0.47;;;19.50;47.30;;;;;;5082814;28;20037;-66
2021/06/06 03:07:46;;;;;;;1.25;0.57;;;19.50;47.20;;;;;;5081078;28;20050;-64
2021/06/06 03:10:18;;;;;;;3.38;0.70;;;19.60;46.90;;;;;;5082563;28;20020;-64
2021/06/06 03:12:49;;;;;;;1.52;0.60;;;19.70;45.20;;;;;;5078004;28;20024;-71
2021/06/06 03:15:19;;;;;;;2.10;0.57;;;19.70;45.50;;;;;;5060991;28;20048;-67
2021/06/06 03:17:50;;;;;;;1.25;0.43;;;19.80;45.00;;;;;;5082310;28;20024;-68
2021/06/06 03:20:28;;;;;;;1.63;0.60;;;19.80;46.20;;;;;;5081450;28;20020;-68
2021/06/06 03:22:58;;;;;;;1.63;0.60;;;19.90;46.00;;;;;;5079509;28;20039;-67
2021/06/06 03:25:38;;;;;;;0.95;0.50;;;20.10;45.70;;;;;;5078683;28;20070;-66
2021/06/06 03:28:08;;;;;;;2.55;0.80;;;20.10;45.40;;;;;;5082926;28;20020;-65
2021/06/06 03:30:45;;;;;;;1.50;0.50;;;20.20;45.40;;;;;;5080731;28;20588;-65
2021/06/06 03:33:21;;;;;;;1.95;0.77;;;20.10;44.80;;;;;;5075288;28;20035;-65
2021/06/06 03:35:49;;;;;;;1.88;0.57;;;20.00;44.20;;;;;;5081139;28;20035;-71
2021/06/06 03:38:16;;;;;;;1.45;0.75;;;20.00;45.90;;;;;;5080691;28;20044;-67
2021/06/06 03:40:46;;;;;;;2.05;0.60;;;20.00;45.10;;;;;;5064254;28;20383;-66
2021/06/06 03:43:16;;;;;;;1.45;0.77;;;20.10;45.30;;;;;;5078500;28;20028;-68
2021/06/06 03:45:43;;;;;;;4.93;0.70;;;19.90;46.20;;;;;;5081374;28;20015;-67
2021/06/06 03:48:11;;;;;;;2.17;0.90;;;19.80;45.60;;;;;;5082779;28;20382;-66
2021/06/06 03:50:40;;;;;;;1.55;0.70;;;19.80;45.30;;;;;;5081056;28;20485;-66
2021/06/06 03:53:08;;;;;;;5.07;0.70;;;19.80;45.10;;;;;;5078528;28;20024;-64
2021/06/06 03:55:35;;;;;;;3.13;0.90;;;19.80;46.00;;;;;;5081539;28;20024;-66
2021/06/06 03:58:03;;;;;;;4.18;2.55;;;19.70;45.40;;;;;;5078984;28;20123;-63
2021/06/06 04:00:36;;;;;;;1.33;0.60;;;19.80;46.20;;;;;;5082111;28;20028;-64
2021/06/06 04:03:05;;;;;;;3.20;0.90;;;19.80;46.50;;;;;;5081399;28;20433;-68
2021/06/06 04:05:33;;;;;;;1.88;0.80;;;19.80;45.80;;;;;;5078117;28;20032;-63
2021/06/06 04:08:00;;;;;;;1.17;0.80;;;19.80;46.20;;;;;;5062605;28;20039;-63
2021/06/06 04:10:27;;;;;;;1.02;0.60;;;19.80;45.40;;;;;;5076974;28;20717;-63
2021/06/06 04:12:54;;;;;;;2.63;0.60;;;19.90;44.90;;;;;;5072499;28;20031;-67
2021/06/06 04:15:22;;;;;;;1.52;0.55;;;19.90;45.00;;;;;;5080147;28;20023;-66
2021/06/06 04:17:49;;;;;;;1.15;0.80;;;20.00;46.10;;;;;;5078921;28;20024;-62
2021/06/06 04:20:17;;;;;;;0.82;0.68;;;20.00;46.60;;;;;;5082992;28;20103;-65
2021/06/06 04:22:44;;;;;;;0.75;0.57;;;20.00;46.10;;;;;;5075682;28;20028;-64
2021/06/06 04:25:13;;;;;;;1.33;0.47;;;20.10;44.10;;;;;;5080647;28;20147;-63
2021/06/06 04:27:40;;;;;;;3.22;1.00;;;20.00;44.40;;;;;;5078735;28;20046;-65
2021/06/06 04:30:09;;;;;;;1.25;0.65;;;20.00;45.40;;;;;;5081300;28;20024;-65
2021/06/06 04:32:36;;;;;;;1.23;0.68;;;20.00;46.30;;;;;;5076415;28;20093;-66
2021/06/06 04:35:04;;;;;;;2.40;0.50;;;20.00;45.70;;;;;;5080673;28;20032;-63
2021/06/06 04:37:31;;;;;;;1.27;0.47;;;20.10;45.00;;;;;;5081452;28;20020;-64
2021/06/06 04:39:58;;;;;;;1.00;0.63;;;20.10;44.90;;;;;;5080163;28;20046;-65
2021/06/06 04:42:25;;;;;;;1.10;0.57;;;20.10;43.10;;;;;;5077543;28;20028;-67
2021/06/06 04:44:52;;;;;;;0.80;0.40;;;20.00;44.30;;;;;;5081826;28;20021;-64
2021/06/06 04:47:19;;;;;;;1.50;0.80;;;20.00;45.50;;;;;;5076476;28;20027;-64
2021/06/06 04:49:48;;;;;;;1.58;0.68;;;20.00;45.20;;;;;;5060247;28;20028;-67
2021/06/06 04:52:16;;;;;;;1.42;0.43;;;20.00;45.50;;;;;;5080447;28;20067;-66
2021/06/06 04:54:44;;;;;;;1.38;0.60;;;19.90;43.80;;;;;;5080880;28;20750;-63
2021/06/06 04:57:11;;;;;;;1.58;0.60;;;19.90;45.10;;;;;;5079143;28;20056;-64
2021/06/06 04:59:39;;;;;;;1.20;0.50;;;19.90;45.60;;;;;;5081125;28;20081;-66
2021/06/06 05:02:09;;;;;;;2.00;0.52;;;20.00;44.80;;;;;;5075994;28;20581;-65
2021/06/06 05:04:37;;;;;;;2.75;0.50;;;20.00;45.70;;;;;;5060165;28;20040;-63
2021/06/06 05:07:04;;;;;;;0.65;0.45;;;20.20;45.10;;;;;;5081315;28;20013;-64
2021/06/06 05:09:32;;;;;;;0.75;0.55;;;20.40;45.40;;;;;;5076572;28;20115;-66
2021/06/06 05:11:59;;;;;;;3.13;1.50;;;20.50;43.50;;;;;;5080265;28;20636;-69
2021/06/06 05:14:26;;;;;;;2.92;0.60;;;20.60;45.20;;;;;;5077547;28;20028;-63
2021/06/06 05:16:53;;;;;;;1.38;0.68;;;20.80;46.20;;;;;;5081186;28;20551;-68
2021/06/06 05:19:20;;;;;;;1.50;0.63;;;20.80;42.50;;;;;;5077685;28;20047;-63
2021/06/06 05:21:46;;;;;;;2.08;0.47;;;20.90;43.90;;;;;;5079867;28;20178;-69
2021/06/06 05:24:13;;;;;;;2.53;0.63;;;21.10;43.50;;;;;;5084237;28;20573;-64
2021/06/06 05:26:40;;;;;;;1.40;0.50;;;21.20;44.50;;;;;;5081121;28;20368;-67
2021/06/06 05:29:09;;;;;;;1.30;0.52;;;21.40;41.40;;;;;;5081779;28;20455;-63
2021/06/06 05:31:36;;;;;;;1.08;0.63;;;21.30;43.50;;;;;;5080926;28;20509;-68
2021/06/06 05:34:03;;;;;;;1.40;0.60;;;21.40;41.00;;;;;;5082738;28;20027;-68
2021/06/06 05:36:30;;;;;;;2.00;0.80;;;21.50;41.40;;;;;;5082629;28;20103;-62
2021/06/06 05:38:57;;;;;;;1.50;0.55;;;21.40;41.60;;;;;;5084060;28;20028;-62
2021/06/06 05:41:24;;;;;;;2.15;0.73;;;21.40;43.90;;;;;;5084001;28;20020;-63
2021/06/06 05:43:51;;;;;;;0.43;0.38;;;21.30;44.10;;;;;;5083562;28;20012;-68
2021/06/06 05:46:21;;;;;;;5.28;3.33;;;21.10;43.50;;;;;;5080888;28;20028;-64
2021/06/06 05:48:49;;;;;;;2.03;0.55;;;21.00;42.20;;;;;;5080534;28;20293;-68
2021/06/06 05:51:18;;;;;;;2.08;0.77;;;20.80;42.30;;;;;;5082830;28;20028;-70
2021/06/06 05:53:46;;;;;;;0.90;0.50;;;20.30;43.60;;;;;;5064264;28;20076;-68
2021/06/06 05:56:16;;;;;;;1.83;1.00;;;19.50;44.50;;;;;;5079506;28;20071;-67
2021/06/06 05:58:43;;;;;;;1.33;0.82;;;19.00;45.40;;;;;;5080845;28;20281;-69
2021/06/06 06:01:11;;;;;;;1.75;1.02;;;18.60;46.70;;;;;;5076741;28;20075;-72
2021/06/06 06:03:38;;;;;;;1.25;0.60;;;18.10;47.40;;;;;;5063281;28;20467;-69
2021/06/06 06:06:06;;;;;;;1.00;0.65;;;17.90;48.70;;;;;;5080128;28;20044;-68
2021/06/06 06:08:36;;;;;;;1.20;0.60;;;17.70;48.90;;;;;;5080280;28;20325;-71
2021/06/06 06:11:05;;;;;;;1.05;0.60;;;17.60;49.40;;;;;;5079600;28;20434;-68
2021/06/06 06:13:33;;;;;;;1.70;1.17;;;17.50;49.30;;;;;;5085376;28;20032;-68
2021/06/06 06:16:03;;;;;;;1.48;1.00;;;17.50;51.10;;;;;;5084599;28;20023;-73
2021/06/06 06:18:31;;;;;;;1.60;0.98;;;17.70;52.40;;;;;;5061983;28;20020;-71
2021/06/06 06:20:59;;;;;;;2.30;0.80;;;17.70;53.00;;;;;;5077747;28;20025;-66
2021/06/06 06:23:27;;;;;;;1.75;0.68;;;17.80;52.90;;;;;;5078676;28;20098;-68
2021/06/06 06:25:54;;;;;;;2.10;0.55;;;17.70;53.00;;;;;;5081853;28;20027;-69
2021/06/06 06:28:22;;;;;;;3.90;0.90;;;17.40;53.90;;;;;;5081605;28;20556;-72
2021/06/06 06:30:50;;;;;;;1.33;0.70;;;17.20;54.20;;;;;;5079551;28;20020;-67
2021/06/06 06:33:17;;;;;;;3.67;0.95;;;17.10;55.70;;;;;;5078703;28;20025;-74
2021/06/06 06:35:44;;;;;;;2.72;0.80;;;16.80;56.20;;;;;;5082205;28;20020;-75
2021/06/06 06:38:12;;;;;;;1.85;0.80;;;16.70;57.00;;;;;;5078767;28;20072;-75
2021/06/06 06:40:40;;;;;;;1.33;0.98;;;16.50;57.10;;;;;;5082749;28;20135;-67
2021/06/06 06:43:07;;;;;;;2.20;1.23;;;16.40;58.40;;;;;;5078351;28;20482;-68
2021/06/06 06:45:40;;;;;;;2.88;1.55;;;16.20;59.60;;;;;;5076908;28;20089;-68
2021/06/06 06:48:12;;;;;;;3.35;1.75;;;16.00;60.80;;;;;;5079769;28;20013;-67
2021/06/06 06:50:40;;;;;;;3.15;1.90;;;15.80;62.50;;;;;;5080163;28;20111;-67
2021/06/06 06:53:08;;;;;;;4.70;1.70;;;15.60;62.90;;;;;;5079691;28;20215;-67
2021/06/06 06:55:36;;;;;;;5.70;4.03;;;15.40;63.90;;;;;;5080535;28;20028;-67
2021/06/06 06:58:06;;;;;;;5.30;3.10;;;15.10;64.00;;;;;;5077352;28;20047;-71
2021/06/06 07:00:48;;;;;;;6.38;4.53;;;14.80;65.40;;;;;;5078519;28;20279;-71
2021/06/06 07:03:18;;;;;;;8.60;4.93;;;14.60;66.40;;;;;;5078886;28;20028;-71
2021/06/06 07:05:46;;;;;;;6.35;4.18;;;14.30;66.50;;;;;;5030205;22;20053;-64
2021/06/06 07:08:17;;;;;;;7.30;3.78;;;14.20;68.00;;;;;;5000729;28;20026;-70
2021/06/06 07:10:44;;;;;;;5.53;3.83;;;14.10;68.90;;;;;;5002353;28;20052;-70
2021/06/06 07:13:11;;;;;;;6.60;4.07;;;14.00;69.50;;;;;;5000487;28;20413;-70
2021/06/06 07:15:40;;;;;;;7.07;4.78;;;13.80;69.90;;;;;;5000554;28;20030;-66
2021/06/06 07:18:09;;;;;;;9.70;6.13;;;13.80;70.60;;;;;;4998767;28;20034;-70
2021/06/06 07:20:42;;;;;;;9.65;6.10;;;13.70;70.80;;;;;;5002591;28;20062;-70
2021/06/06 07:23:14;;;;;;;10.93;7.55;;;13.70;71.40;;;;;;5001272;28;20033;-69
2021/06/06 07:25:43;;;;;;;9.88;5.50;;;13.70;71.80;;;;;;5001969;28;20125;-65
2021/06/06 07:28:13;;;;;;;8.35;5.53;;;13.70;71.40;;;;;;5003785;28;20552;-69
2021/06/06 07:30:48;;;;;;;6.68;3.80;;;13.60;72.00;;;;;;5002791;28;20023;-67
2021/06/06 07:33:25;;;;;;;9.00;4.75;;;13.50;72.50;;;;;;4996471;28;20056;-67
2021/06/06 07:35:53;;;;;;;7.43;4.03;;;13.50;72.50;;;;;;5003586;28;20026;-64
2021/06/06 07:38:23;;;;;;;8.55;4.50;;;13.40;72.90;;;;;;5002688;28;20042;-64
2021/06/06 07:40:51;;;;;;;5.72;4.32;;;13.30;73.60;;;;;;4654041;28;10000608;-68
2021/06/06 07:43:19;;;;;;;6.93;4.25;;;13.20;74.50;;;;;;4987239;28;20039;-72
2021/06/06 07:45:46;;;;;;;5.75;4.13;;;13.10;74.90;;;;;;4989354;28;20108;-68
2021/06/06 07:48:13;;;;;;;9.23;4.38;;;13.10;74.70;;;;;;4995158;28;20029;-73
2021/06/06 07:50:43;;;;;;;7.57;5.00;;;13.00;75.10;;;;;;4989625;28;20092;-70
2021/06/06 07:53:12;;;;;;;9.43;4.15;;;13.00;75.50;;;;;;4985228;28;20037;-67
2021/06/06 07:55:39;;;;;;;8.15;5.07;;;13.00;75.50;;;;;;4993467;28;20108;-66
2021/06/06 07:58:06;;;;;;;6.07;4.57;;;12.90;75.50;;;;;;4989545;28;20045;-69
2021/06/06 08:00:43;;;;;;;9.50;5.18;;;12.90;75.60;;;;;;4987160;28;20424;-69
2021/06/06 08:03:10;;;;;;;15.40;10.98;;;12.90;75.60;;;;;;4981422;28;20812;-67
2021/06/06 08:05:38;;;;;;;31.30;23.63;;;12.90;75.70;;;;;;4991038;28;20844;-70
2021/06/06 08:08:06;;;;;;;12.38;10.23;;;12.80;76.20;;;;;;4993816;28;20289;-71
2021/06/06 08:10:35;;;;;;;12.05;8.02;;;12.80;77.60;;;;;;4989057;28;20550;-70
2021/06/06 08:13:04;;;;;;;10.07;7.93;;;12.70;78.30;;;;;;4985182;28;20057;-71
2021/06/06 08:15:32;;;;;;;10.27;7.03;;;12.60;78.80;;;;;;4993160;28;20499;-68
2021/06/06 08:18:05;;;;;;;39.40;26.00;;;12.50;78.80;;;;;;4983879;28;20481;-72
2021/06/06 08:20:42;;;;;;;39.05;30.05;;;12.40;78.40;;;;;;4987330;28;20144;-71
2021/06/06 08:23:09;;;;;;;37.30;24.63;;;12.30;78.60;;;;;;4993696;28;20041;-71
2021/06/06 08:25:38;;;;;;;21.00;14.55;;;12.30;79.30;;;;;;4990794;28;20030;-72
2021/06/06 08:28:07;;;;;;;23.55;15.80;;;12.10;79.50;;;;;;4998121;28;20029;-66
2021/06/06 08:30:42;;;;;;;60.38;45.08;;;12.10;79.90;;;;;;4984470;28;20014;-69
2021/06/06 08:33:10;;;;;;;24.77;19.00;;;12.00;80.50;;;;;;4983902;28;20030;-68
2021/06/06 08:35:38;;;;;;;14.90;9.70;;;12.10;80.70;;;;;;4984989;28;20484;-69
2021/06/06 08:38:05;;;;;;;9.80;8.40;;;12.00;83.10;;;;;;4989569;28;20405;-67
2021/06/06 08:40:57;;;;;;;15.15;11.57;;;11.90;83.40;;;;;;4994135;28;20092;-67
2021/06/06 08:43:34;;;;;;;19.33;12.25;;;11.80;83.50;;;;;;4984872;28;20034;-67
2021/06/06 08:46:02;;;;;;;14.38;10.98;;;11.90;82.80;;;;;;4988866;28;20124;-67
2021/06/06 08:48:30;;;;;;;14.27;8.73;;;11.90;82.80;;;;;;4995392;28;20033;-64
2021/06/06 08:51:15;;;;;;;11.48;7.97;;;11.80;84.30;;;;;;4989732;28;20326;-66
2021/06/06 08:54:17;;;;;;;8.73;7.15;;;11.70;84.30;;;;;;4989024;28;20018;-68
2021/06/06 08:56:47;;;;;;;11.55;8.05;;;11.60;84.80;;;;;;4986746;28;20049;-69
2021/06/06 08:59:46;;;;;;;10.05;7.15;;;11.50;85.20;;;;;;4997498;28;20590;-64
2021/06/06 09:02:38;;;;;;;11.77;9.70;;;11.30;85.70;;;;;;4986506;28;20074;-65
2021/06/06 09:05:08;;;;;;;16.48;11.57;;;11.20;86.10;;;;;;4998031;28;20050;-64
2021/06/06 09:07:45;;;;;;;51.38;35.92;;;11.20;85.60;;;;;;4995668;28;20057;-65
2021/06/06 09:10:37;;;;;;;20.52;12.13;;;11.20;85.10;;;;;;4997013;28;20022;-64
2021/06/06 09:13:08;;;;;;;15.35;11.48;;;11.20;85.50;;;;;;4997476;28;20022;-68
2021/06/06 09:15:36;;;;;;;11.85;9.38;;;11.10;85.60;;;;;;4997547;28;20061;-64
2021/06/06 09:18:25;;;;;;;19.02;10.70;;;11.00;86.50;;;;;;4997178;28;20025;-64
2021/06/06 09:20:54;;;;;;;23.05;15.30;;;10.90;87.50;;;;;;4972455;28;20037;-64
2021/06/06 09:23:31;;;;;;;22.90;16.40;;;10.80;88.10;;;;;;4987042;28;20485;-68
2021/06/06 09:26:04;;;;;;;22.02;15.60;;;10.80;87.80;;;;;;4999228;28;20084;-69
2021/06/06 09:28:33;;;;;;;22.25;16.05;;;10.80;87.80;;;;;;4998235;28;20022;-68
2021/06/06 09:31:16;;;;;;;19.45;13.57;;;10.70;88.10;;;;;;4995564;28;20089;-68
2021/06/06 09:34:03;;;;;;;16.93;11.30;;;10.70;88.10;;;;;;4997384;28;20095;-67
2021/06/06 09:36:42;;;;;;;13.93;11.23;;;10.60;87.70;;;;;;4996133;28;20026;-64
2021/06/06 09:39:29;;;;;;;13.88;10.05;;;10.70;88.20;;;;;;4994978;28;20170;-67
2021/06/06 09:42:00;;;;;;;17.38;11.13;;;10.60;88.40;;;;;;4992904;28;20351;-67
2021/06/06 09:44:28;;;;;;;17.08;11.15;;;10.60;88.70;;;;;;4991015;28;20068;-66
2021/06/06 09:47:11;;;;;;;15.50;11.57;;;10.40;89.00;;;;;;4987442;28;20338;-67
2021/06/06 09:49:48;;;;;;;16.35;11.27;;;10.30;90.00;;;;;;4995135;28;20014;-64
2021/06/06 09:52:27;;;;;;;15.07;11.45;;;10.20;90.20;;;;;;4995194;28;20523;-71
2021/06/06 09:54:58;;;;;;;14.70;12.63;;;10.10;90.40;;;;;;4998495;28;20048;-63
2021/06/06 09:57:37;;;;;;;14.48;11.30;;;10.00;90.50;;;;;;4990102;28;20421;-70
2021/06/06 10:00:13;;;;;;;16.58;11.50;;;10.00;90.40;;;;;;4985529;28;20329;-62
2021/06/06 10:02:50;;;;;;;14.32;10.70;;;10.00;90.40;;;;;;4984905;28;20030;-74
2021/06/06 10:05:25;;;;;;;13.85;10.75;;;10.00;90.30;;;;;;4997015;28;20038;-64
2021/06/06 10:08:06;;;;;;;17.38;10.32;;;10.00;90.50;;;;;;4985562;28;20367;-63
2021/06/06 10:10:35;;;;;;;12.25;9.30;;;10.00;90.60;;;;;;4999974;28;20030;-62
2021/06/06 10:13:06;;;;;;;16.08;9.30;;;9.90;90.50;;;;;;4999764;28;20030;-67
2021/06/06 10:15:55;;;;;;;13.25;9.27;;;9.80;90.70;;;;;;4995470;28;20040;-70
2021/06/06 10:18:43;;;;;;;16.73;10.68;;;9.80;91.00;;;;;;5002478;28;20125;-63
2021/06/06 10:21:17;;;;;;;11.40;8.40;;;9.70;91.00;;;;;;5002523;28;20718;-62
2021/06/06 10:23:49;;;;;;;12.93;10.07;;;9.70;91.20;;;;;;4997483;28;20030;-63
2021/06/06 10:26:39;;;;;;;12.50;9.93;;;9.70;91.30;;;;;;5001324;28;20022;-60
2021/06/06 10:29:30;;;;;;;13.90;10.13;;;9.70;90.90;;;;;;4995767;28;20076;-61
2021/06/06 10:32:25;;;;;;;11.18;9.57;;;9.70;91.10;;;;;;4997903;28;20066;-66
2021/06/06 10:35:08;;;;;;;14.90;10.00;;;9.60;90.90;;;;;;4987958;28;20034;-66
2021/06/06 10:37:35;;;;;;;13.65;10.45;;;9.70;91.20;;;;;;4978083;28;20053;-63
2021/06/06 10:40:12;;;;;;;13.13;9.48;;;9.70;91.00;;;;;;4994500;28;20545;-66
2021/06/06 10:42:48;;;;;;;19.13;9.75;;;9.60;91.10;;;;;;4988426;28;20030;-68
2021/06/06 10:45:30;;;;;;;12.63;10.30;;;9.50;91.40;;;;;;4988881;28;20501;-62
2021/06/06 10:48:03;;;;;;;10.95;9.35;;;9.40;91.20;;;;;;4998231;28;20219;-62
2021/06/06 10:50:31;;;;;;;;;;;9.40;91.20;;;;;;4994679;28;20037;-62
2021/06/06 10:53:13;;;;;;;16.52;10.95;;;9.30;91.50;;;;;;4990845;28;20156;-63
2021/06/06 10:56:01;;;;;;;17.08;10.35;;;9.30;91.60;;;;;;4985948;28;20058;-65
2021/06/06 10:58:37;;;;;;;16.48;11.18;;;9.30;91.60;;;;;;4991368;28;20045;-61
2021/06/06 11:01:21;;;;;;;17.83;10.68;;;9.30;91.70;;;;;;4985935;28;20038;-64
2021/06/06 11:03:51;;;;;;;17.40;11.00;;;9.30;91.60;;;;;;4995253;28;20459;-62
2021/06/06 11:06:32;;;;;;;20.27;11.43;;;9.20;92.20;;;;;;4999460;28;20165;-66
2021/06/06 11:08:59;;;;;;;13.02;9.93;;;9.20;92.10;;;;;;4993286;28;20030;-67
2021/06/06 11:11:29;;;;;;;17.30;10.35;;;9.10;92.10;;;;;;4988016;28;20037;-62
2021/06/06 11:14:02;;;;;;;19.27;11.30;;;9.00;92.20;;;;;;4989578;28;20462;-63
2021/06/06 11:16:38;;;;;;;15.15;10.80;;;8.90;92.60;;;;;;4987987;28;20033;-68
2021/06/06 11:19:13;;;;;;;20.15;11.85;;;8.90;92.80;;;;;;4994177;28;20031;-68
2021/06/06 11:21:46;;;;;;;16.65;10.15;;;8.80;93.20;;;;;;4988286;28;20121;-62
2021/06/06 11:24:42;;;;;;;16.52;11.15;;;8.70;93.40;;;;;;4999347;28;20034;-66
2021/06/06 11:27:12;;;;;;;20.25;10.57;;;8.60;93.40;;;;;;4990016;28;20064;-69
2021/06/06 11:29:59;;;;;;;21.40;10.43;;;8.70;93.20;;;;;;4991943;28;20030;-62
2021/06/06 11:32:51;;;;;;;12.93;9.90;;;8.70;93.10;;;;;;4998663;28;20041;-63
2021/06/06 11:35:41;;;;;;;14.63;10.63;;;8.60;93.30;;;;;;4993463;28;20053;-64
2021/06/06 11:38:17;;;;;;;14.77;8.85;;;8.50;93.40;;;;;;4997879;28;20069;-64
2021/06/06 11:40:50;;;;;;;10.23;7.93;;;8.50;92.90;;;;;;4646495;28;10000482;-66
2021/06/06 11:44:07;;;;;;;10.80;8.23;;;8.50;93.10;;;;;;4999461;28;21415;-66
2021/06/06 11:46:45;;;;;;;10.52;7.90;;;8.50;92.80;;;;;;4937288;28;20042;-68
2021/06/06 11:49:35;;;;;;;12.23;8.57;;;8.40;93.10;;;;;;4940419;29;20031;-68
2021/06/06 11:52:34;;;;;;;14.40;8.68;;;8.40;93.40;;;;;;4974687;28;20039;-64
2021/06/06 11:55:27;;;;;;;13.38;8.40;;;8.30;93.40;;;;;;4983278;28;20037;-65
2021/06/06 11:58:14;;;;;;;12.95;7.68;;;8.30;93.20;;;;;;4991737;28;20523;-64
2021/06/06 12:00:44;;;;;;;14.82;9.00;;;8.20;93.30;;;;;;4988148;28;20113;-64
2021/06/06 12:03:13;;;;;;;11.82;8.93;;;8.20;93.70;;;;;;4984914;28;20347;-66
2021/06/06 12:05:57;;;;;;;14.07;9.57;;;8.10;93.90;;;;;;4998421;28;20179;-67
2021/06/06 12:08:44;;;;;;;11.70;8.85;;;8.10;94.30;;;;;;4989073;28;20033;-65
2021/06/06 12:11:35;;;;;;;13.38;8.77;;;8.10;94.40;;;;;;4983784;28;20080;-66
2021/06/06 12:14:16;;;;;;;13.20;8.85;;;8.00;94.30;;;;;;4991824;28;20030;-67
2021/06/06 12:16:54;;;;;;;13.00;9.45;;;7.90;94.60;;;;;;4993308;28;20030;-69
2021/06/06 12:19:37;;;;;;;16.95;10.88;;;7.80;94.60;;;;;;4987904;28;20031;-66
2021/06/06 12:22:27;;;;;;;15.35;9.70;;;7.70;95.00;;;;;;4985575;28;20175;-66
2021/06/06 12:25:18;;;;;;;17.70;11.30;;;7.80;95.10;;;;;;4990769;28;20042;-65
2021/06/06 12:27:48;;;;;;;19.35;10.55;;;7.80;95.00;;;;;;4984129;28;20081;-65
2021/06/06 12:30:33;;;;;;;17.52;11.40;;;7.80;94.80;;;;;;4981875;28;20049;-65
2021/06/06 12:33:48;;;;;;;15.10;10.93;;;7.70;94.90;;;;;;4988909;28;20085;-67
2021/06/06 12:36:38;;;;;;;16.63;10.88;;;7.70;95.30;;;;;;4986817;28;20034;-64
2021/06/06 12:39:12;;;;;;;15.13;10.20;;;7.70;95.40;;;;;;4991300;28;20554;-65
2021/06/06 12:41:48;;;;;;;19.10;12.68;;;7.70;95.20;;;;;;4994473;28;20034;-67
2021/06/06 12:44:19;;;;;;;20.33;13.85;;;7.60;95.50;;;;;;4991956;28;20042;-65
2021/06/06 12:47:07;;;;;;;19.90;13.65;;;7.50;95.90;;;;;;4986621;28;20022;-66
2021/06/06 12:50:03;;;;;;;21.05;14.27;;;7.50;95.90;;;;;;4986175;28;20049;-64
2021/06/06 12:52:32;;;;;;;21.25;14.07;;;7.50;96.00;;;;;;4978939;28;20038;-64
2021/06/06 12:55:28;;;;;;;18.80;15.02;;;7.50;95.70;;;;;;4987125;28;20034;-67
2021/06/06 12:58:00;;;;;;;18.98;13.98;;;7.50;96.00;;;;;;4982509;28;20050;-64
2021/06/06 13:00:33;;;;;;;18.73;14.48;;;7.50;95.80;;;;;;4994276;28;20057;-64
2021/06/06 13:03:00;;;;;;;;;;;7.50;95.70;;;;;;4986196;28;20470;-65
2021/06/06 13:05:38;;;;;;;21.88;14.63;;;7.60;95.50;;;;;;4989614;28;19922;-65
2021/06/06 13:08:20;;;;;;;20.95;14.73;;;7.60;95.30;;;;;;4987089;28;20537;-66
2021/06/06 13:11:00;;;;;;;20.42;14.43;;;7.60;95.40;;;;;;4986696;28;20049;-62
2021/06/06 13:13:37;;;;;;;19.30;14.73;;;7.50;95.50;;;;;;4987903;28;20489;-66
2021/06/06 13:16:19;;;;;;;17.17;14.65;;;7.40;95.70;;;;;;4988242;28;20036;-64
2021/06/06 13:18:57;;;;;;;20.27;14.32;;;7.40;96.00;;;;;;4990229;28;20358;-67